Sunderland, Vermont
Current Conditions -  °F | °C
As of 8:54 AM on Thursday 29 Jan 2015 (Local Time) from KDDH Reporting Station
Clear Clear  
Wind Chill:   Ceiling: Unl
Heat Index:   Visibility: 10mi
Dew Point: -2°   Wind: 0mph
Humidity: 80%   Direction: NA
Pressure: 30.26"   Gusts: NA
Location:  43.0661°N, 73.1407°W
Report Text: KDDH 291354Z AUTO 00000KT 10SM CLR M16/M19 A3026 RMK AO2 SLP267 T11611189
Loading
Personal Weather Stations






























Interactive Weather Map New forecast layout! Learn more

10-Day Weather Forecast

Advertisements
Track Severe Weather on mobile